createdAt,value
2018-12-30T06:58:53.135Z,10.60
2018-12-30T07:00:08.960Z,15.15
2018-12-30T07:01:25.404Z,10.15
2018-12-30T07:02:41.263Z,8.73
2018-12-30T07:03:57.524Z,10.98
2018-12-30T07:05:13.597Z,10.08
2018-12-30T07:06:29.546Z,18.87
2018-12-30T07:07:45.623Z,11.70
2018-12-30T07:09:01.523Z,11.63
2018-12-30T07:10:17.607Z,12.98
2018-12-30T07:11:33.514Z,13.40
2018-12-30T07:12:49.715Z,14.40
2018-12-30T07:14:05.931Z,18.20
2018-12-30T07:15:22.182Z,16.15
2018-12-30T07:16:38.100Z,13.48
2018-12-30T07:17:54.030Z,12.75
2018-12-30T07:19:10.176Z,9.53
2018-12-30T07:20:25.927Z,17.62
2018-12-30T07:21:41.501Z,8.78
2018-12-30T07:22:57.396Z,13.65
2018-12-30T07:24:13.449Z,9.35
2018-12-30T07:25:29.758Z,11.55
2018-12-30T07:26:45.599Z,12.55
2018-12-30T07:28:01.612Z,10.75
2018-12-30T07:29:17.644Z,15.55
2018-12-30T07:30:33.655Z,12.75
2018-12-30T07:31:49.659Z,16.45
2018-12-30T07:33:05.666Z,13.75
2018-12-30T07:34:21.356Z,15.18
2018-12-30T07:35:37.304Z,11.65
2018-12-30T07:36:53.872Z,13.22
2018-12-30T07:38:09.845Z,11.75
2018-12-30T07:39:25.610Z,17.55
2018-12-30T07:40:41.449Z,12.75
2018-12-30T07:41:57.393Z,16.93
2018-12-30T07:43:13.191Z,11.95
2018-12-30T07:44:29.016Z,11.20
2018-12-30T07:45:44.928Z,9.65
2018-12-30T07:47:00.788Z,7.20
2018-12-30T07:48:17.159Z,10.68
2018-12-30T07:49:33.471Z,9.30
2018-12-30T07:50:49.614Z,8.13
2018-12-30T07:52:05.456Z,7.55
2018-12-30T07:53:21.855Z,7.30
2018-12-30T07:54:38.124Z,12.53
2018-12-30T07:55:54.026Z,6.35
2018-12-30T07:57:09.827Z,8.93
2018-12-30T07:58:25.806Z,13.58
2018-12-30T07:59:41.647Z,10.80
2018-12-30T08:00:57.131Z,4.78
2018-12-30T08:02:12.735Z,8.88
2018-12-30T08:03:28.781Z,9.50
2018-12-30T08:04:44.500Z,10.70
2018-12-30T08:06:00.767Z,10.18
2018-12-30T08:07:16.880Z,10.40
2018-12-30T08:08:32.907Z,13.50
2018-12-30T08:09:48.877Z,14.00
2018-12-30T08:11:04.969Z,13.95
2018-12-30T08:12:20.869Z,12.25
2018-12-30T08:13:36.698Z,8.30
2018-12-30T08:14:52.899Z,11.88
2018-12-30T08:16:08.920Z,11.83
2018-12-30T08:17:24.728Z,9.13
2018-12-30T08:18:40.615Z,11.15
2018-12-30T08:19:56.452Z,9.68
2018-12-30T08:21:12.540Z,10.85
2018-12-30T08:22:28.472Z,11.97
2018-12-30T08:23:44.232Z,13.13
2018-12-30T08:25:00.153Z,8.08
2018-12-30T08:26:16.156Z,12.70
2018-12-30T08:27:32.083Z,9.75
2018-12-30T08:28:48.003Z,10.80
2018-12-30T08:30:04.383Z,8.28
2018-12-30T08:31:20.255Z,8.78
2018-12-30T08:32:36.223Z,10.50
2018-12-30T08:33:52.066Z,9.75
2018-12-30T08:35:08.330Z,9.43
2018-12-30T08:36:24.470Z,11.60
2018-12-30T08:37:40.725Z,11.38
2018-12-30T08:38:56.726Z,12.85
2018-12-30T08:40:12.704Z,8.50
2018-12-30T08:41:28.747Z,11.18
2018-12-30T08:42:44.978Z,6.42
2018-12-30T08:44:01.186Z,11.22
2018-12-30T08:45:17.112Z,11.12
2018-12-30T08:46:33.438Z,7.12
2018-12-30T08:47:49.409Z,8.03
2018-12-30T08:49:05.311Z,14.07
2018-12-30T08:50:21.189Z,7.78
2018-12-30T08:51:35.506Z,5.58
2018-12-30T09:03:34.134Z,5.85
2018-12-30T09:04:49.928Z,7.65
2018-12-30T09:06:05.984Z,8.30
2018-12-30T09:07:21.800Z,8.55
2018-12-30T09:08:37.654Z,9.00
2018-12-30T09:09:53.604Z,10.13
2018-12-30T09:11:09.529Z,9.95
2018-12-30T09:12:25.322Z,13.20
2018-12-30T09:13:41.649Z,9.30
2018-12-30T09:14:57.440Z,9.63
2018-12-30T09:16:13.203Z,7.83
2018-12-30T09:17:29.369Z,6.92
2018-12-30T09:18:45.372Z,7.53
2018-12-30T09:20:01.343Z,8.85
2018-12-30T09:21:17.211Z,3.95
2018-12-30T09:22:32.950Z,7.87
2018-12-30T09:23:48.816Z,8.68
2018-12-30T09:25:04.395Z,8.65
2018-12-30T09:26:20.109Z,4.95
2018-12-30T09:27:36.115Z,10.68
2018-12-30T09:28:52.190Z,9.23
2018-12-30T09:30:08.254Z,9.70
2018-12-30T09:31:24.140Z,15.23
2018-12-30T09:32:39.902Z,9.38
2018-12-30T09:33:55.736Z,12.05
2018-12-30T09:35:11.645Z,5.67
2018-12-30T09:36:27.901Z,5.75
2018-12-30T09:37:44.191Z,8.20
2018-12-30T09:39:00.049Z,6.03
2018-12-30T09:40:15.771Z,8.40
2018-12-30T09:41:31.816Z,9.55
2018-12-30T09:42:47.745Z,14.30
2018-12-30T09:44:03.548Z,9.55
2018-12-30T09:45:19.675Z,7.25
2018-12-30T09:46:35.560Z,5.95
2018-12-30T09:47:51.887Z,10.13
2018-12-30T09:49:07.952Z,5.75
2018-12-30T09:50:23.542Z,9.63
2018-12-30T09:51:39.639Z,5.72
2018-12-30T09:52:55.588Z,7.80
2018-12-30T09:54:11.571Z,9.40
2018-12-30T09:55:27.524Z,8.95
2018-12-30T09:56:43.466Z,12.82
2018-12-30T09:57:59.157Z,12.00
2018-12-30T09:59:15.132Z,8.48
2018-12-30T10:00:31.088Z,8.93
2018-12-30T10:01:47.332Z,8.20
2018-12-30T10:03:03.636Z,7.95
2018-12-30T10:04:19.807Z,7.33
2018-12-30T10:05:35.847Z,10.00
2018-12-30T10:06:51.792Z,8.80
2018-12-30T10:08:07.973Z,8.05
2018-12-30T10:09:23.870Z,6.58
2018-12-30T10:10:39.975Z,6.95
2018-12-30T10:11:56.195Z,10.23
2018-12-30T10:13:12.555Z,11.78
2018-12-30T10:14:28.666Z,10.08
2018-12-30T10:15:44.728Z,10.13
2018-12-30T10:17:00.920Z,13.75
2018-12-30T10:18:16.815Z,8.73
2018-12-30T10:19:32.804Z,11.10
2018-12-30T10:20:48.845Z,13.72
2018-12-30T10:22:04.650Z,7.92
2018-12-30T10:23:20.649Z,6.60
2018-12-30T10:24:36.463Z,8.15
2018-12-30T10:25:52.351Z,12.70
2018-12-30T10:27:08.738Z,7.55
2018-12-30T10:28:24.500Z,6.28
2018-12-30T10:29:40.198Z,4.00
2018-12-30T10:30:56.059Z,10.32
2018-12-30T10:32:12.219Z,8.45
2018-12-30T10:33:28.319Z,7.50
2018-12-30T10:34:44.607Z,9.40
2018-12-30T10:36:00.355Z,5.83
2018-12-30T10:37:16.109Z,11.20
2018-12-30T10:38:32.066Z,11.28
2018-12-30T10:39:48.450Z,12.75
2018-12-30T10:41:04.895Z,10.25
2018-12-30T10:42:21.191Z,10.32
2018-12-30T10:43:37.200Z,7.17
2018-12-30T10:44:53.059Z,10.10
2018-12-30T10:46:09.207Z,6.42
2018-12-30T10:47:24.823Z,4.33
2018-12-30T10:48:40.777Z,7.83
2018-12-30T10:49:57.044Z,8.83
2018-12-30T10:51:12.767Z,13.28
2018-12-30T10:52:29.207Z,11.05
2018-12-30T10:53:45.047Z,9.65
2018-12-30T10:55:01.103Z,10.30
2018-12-30T10:56:17.185Z,9.83
2018-12-30T10:57:33.285Z,12.35
2018-12-30T10:58:49.574Z,9.33
2018-12-30T11:00:05.556Z,8.33
2018-12-30T11:01:22.139Z,9.45
2018-12-30T11:02:37.947Z,10.82
2018-12-30T11:03:53.800Z,14.53
2018-12-30T11:05:10.063Z,17.82
2018-12-30T11:06:26.066Z,7.90
2018-12-30T11:07:42.299Z,14.35
2018-12-30T11:08:58.396Z,12.23
2018-12-30T11:10:14.311Z,12.07
2018-12-30T11:11:30.534Z,19.95
2018-12-30T11:12:46.783Z,10.20
2018-12-30T11:14:02.491Z,12.60
2018-12-30T11:15:18.595Z,11.50
2018-12-30T11:16:34.353Z,10.88
2018-12-30T11:17:50.546Z,12.10
2018-12-30T11:19:06.707Z,10.53
2018-12-30T11:20:22.899Z,13.58
2018-12-30T11:21:39.155Z,10.28
2018-12-30T11:22:55.411Z,12.35
2018-12-30T11:24:11.552Z,13.10
2018-12-30T11:25:27.729Z,12.03
2018-12-30T11:26:43.524Z,11.48
2018-12-30T11:27:59.565Z,9.15
2018-12-30T11:29:15.464Z,11.63
2018-12-30T11:30:31.166Z,9.65
2018-12-30T11:31:47.152Z,7.40
2018-12-30T11:33:02.775Z,7.60
2018-12-30T11:34:18.726Z,10.58
2018-12-30T11:35:34.504Z,16.52
2018-12-30T11:36:50.503Z,13.55
2018-12-30T11:38:06.761Z,15.85
2018-12-30T11:39:22.796Z,32.03
2018-12-30T11:40:38.664Z,19.98
2018-12-30T11:41:54.896Z,8.00
2018-12-30T11:43:10.531Z,10.10
2018-12-30T11:44:26.513Z,9.50
2018-12-30T11:45:42.204Z,10.00
2018-12-30T11:46:58.415Z,9.00
2018-12-30T11:48:14.296Z,10.98
2018-12-30T11:49:30.200Z,13.38
2018-12-30T11:50:46.224Z,10.85
2018-12-30T11:52:02.019Z,8.30
2018-12-30T11:53:18.419Z,10.75
2018-12-30T11:54:34.418Z,10.88
2018-12-30T11:55:50.308Z,11.22
2018-12-30T11:57:06.728Z,11.70
2018-12-30T11:58:22.599Z,10.95
2018-12-30T11:59:38.524Z,11.28
2018-12-30T12:00:54.132Z,12.10
2018-12-30T12:02:10.612Z,5.30
2018-12-30T12:03:26.391Z,11.03
2018-12-30T12:04:42.631Z,13.68
2018-12-30T12:05:58.503Z,12.15
2018-12-30T12:07:14.896Z,9.58
2018-12-30T12:08:30.667Z,9.45
2018-12-30T12:09:46.945Z,8.70
2018-12-30T12:11:03.112Z,11.85
2018-12-30T12:12:19.078Z,9.63
2018-12-30T12:13:35.380Z,7.00
2018-12-30T12:14:51.346Z,8.05
2018-12-30T12:16:07.400Z,9.60
2018-12-30T12:17:23.386Z,12.35
2018-12-30T12:18:39.264Z,9.83
2018-12-30T12:19:55.203Z,16.25
2018-12-30T12:21:11.301Z,9.43
2018-12-30T12:22:27.251Z,9.38
2018-12-30T12:23:43.237Z,12.53
2018-12-30T12:24:59.435Z,5.65
2018-12-30T12:26:15.673Z,10.72
2018-12-30T12:27:32.200Z,12.25
2018-12-30T12:28:48.648Z,12.23
2018-12-30T12:30:04.928Z,11.38
2018-12-30T12:31:21.220Z,16.35
2018-12-30T12:32:37.504Z,9.63
2018-12-30T12:33:53.852Z,13.18
2018-12-30T12:35:09.931Z,12.73
2018-12-30T12:36:25.505Z,13.95
2018-12-30T12:37:41.731Z,12.13
2018-12-30T12:38:57.916Z,18.60
2018-12-30T12:40:13.847Z,10.18
2018-12-30T12:41:30.152Z,7.97
2018-12-30T12:42:46.107Z,9.70
2018-12-30T12:44:02.092Z,10.10
2018-12-30T12:45:18.074Z,5.75
2018-12-30T12:46:33.996Z,11.48
2018-12-30T12:47:49.928Z,9.78
2018-12-30T12:49:06.033Z,6.78
2018-12-30T12:50:21.970Z,9.90
2018-12-30T12:51:38.219Z,10.30
2018-12-30T12:52:54.175Z,14.30
2018-12-30T12:54:10.385Z,8.80
2018-12-30T12:55:26.056Z,7.10
2018-12-30T12:56:42.153Z,12.20
2018-12-30T12:57:58.352Z,10.78
2018-12-30T12:59:14.073Z,12.05
2018-12-30T13:00:29.929Z,14.55
2018-12-30T13:01:45.692Z,10.08
2018-12-30T13:03:01.672Z,12.37
2018-12-30T13:04:17.417Z,9.70
2018-12-30T13:05:33.380Z,9.63
2018-12-30T13:06:49.271Z,13.38
2018-12-30T13:08:07.086Z,11.63
2018-12-30T13:09:22.703Z,10.13
2018-12-30T13:10:39.119Z,10.58
2018-12-30T13:11:55.088Z,12.07
2018-12-30T13:13:11.109Z,9.25
2018-12-30T13:14:27.401Z,13.18
2018-12-30T13:15:43.199Z,8.03
2018-12-30T13:16:59.046Z,6.08
2018-12-30T13:18:15.050Z,17.98
2018-12-30T13:19:31.326Z,10.35
2018-12-30T13:20:47.547Z,9.48
2018-12-30T13:22:03.376Z,8.33
2018-12-30T13:23:22.070Z,7.28
2018-12-30T13:24:40.082Z,10.05
2018-12-30T13:25:56.643Z,6.53
2018-12-30T13:27:12.932Z,9.25
2018-12-30T13:28:28.598Z,7.95
2018-12-30T13:29:44.905Z,6.42
2018-12-30T13:31:00.794Z,8.35
2018-12-30T13:32:16.616Z,15.25
2018-12-30T13:33:32.393Z,10.40
2018-12-30T13:34:48.652Z,6.05
2018-12-30T13:36:04.803Z,9.10
2018-12-30T13:37:20.836Z,6.58
2018-12-30T13:38:36.611Z,11.35
2018-12-30T13:39:52.408Z,7.05
2018-12-30T13:41:08.239Z,9.95
2018-12-30T13:42:24.076Z,7.10
2018-12-30T13:43:40.280Z,8.60
2018-12-30T13:44:56.080Z,5.75
2018-12-30T13:46:12.097Z,10.35
2018-12-30T13:47:28.030Z,11.08
2018-12-30T13:48:44.180Z,8.70
2018-12-30T13:50:00.371Z,11.97
2018-12-30T13:51:16.409Z,8.83
2018-12-30T13:52:32.786Z,10.90
2018-12-30T13:53:48.773Z,6.72
2018-12-30T13:55:04.765Z,12.00
2018-12-30T13:56:20.590Z,9.33
2018-12-30T13:57:36.504Z,12.18
2018-12-30T13:58:52.440Z,8.45
2018-12-30T14:00:08.961Z,11.88
2018-12-30T14:01:24.930Z,14.38
2018-12-30T14:02:41.075Z,12.25
2018-12-30T14:03:57.313Z,12.47
2018-12-30T14:05:13.320Z,12.10
2018-12-30T14:06:29.099Z,8.15
2018-12-30T14:07:44.912Z,7.65
2018-12-30T14:09:00.651Z,10.43
2018-12-30T14:10:16.514Z,10.98
2018-12-30T14:11:32.380Z,8.38
2018-12-30T14:12:48.399Z,13.75
2018-12-30T14:14:04.111Z,10.18
2018-12-30T14:15:20.144Z,12.18
2018-12-30T14:16:36.509Z,15.93
2018-12-30T14:17:52.566Z,10.63
2018-12-30T14:19:08.644Z,13.65
2018-12-30T14:20:24.338Z,15.25
2018-12-30T14:21:40.468Z,8.48
2018-12-30T14:22:56.380Z,10.53
2018-12-30T14:24:12.507Z,7.65
2018-12-30T14:25:28.467Z,11.08
2018-12-30T14:26:44.405Z,11.90
2018-12-30T14:28:00.458Z,14.20
2018-12-30T14:29:16.339Z,8.75
2018-12-30T14:30:32.666Z,10.08
2018-12-30T14:31:48.839Z,8.28
2018-12-30T14:33:05.199Z,15.72
2018-12-30T14:34:21.260Z,12.93
2018-12-30T14:35:37.513Z,8.45
2018-12-30T14:36:53.894Z,13.75
2018-12-30T14:38:10.286Z,13.03
2018-12-30T14:39:26.158Z,8.83
2018-12-30T14:40:42.000Z,9.00
2018-12-30T14:41:58.323Z,10.90
2018-12-30T14:43:14.424Z,14.07
2018-12-30T14:44:30.638Z,10.03
2018-12-30T14:45:46.903Z,11.80
2018-12-30T14:47:02.887Z,8.53
2018-12-30T14:48:18.946Z,13.40
2018-12-30T14:49:34.528Z,11.80
2018-12-30T14:50:50.604Z,11.28
2018-12-30T14:52:06.810Z,15.50
2018-12-30T14:53:22.599Z,16.95
2018-12-30T14:54:38.852Z,11.33
2018-12-30T14:55:55.143Z,11.65
2018-12-30T14:57:11.537Z,16.00
2018-12-30T14:58:27.270Z,12.80
2018-12-30T14:59:43.715Z,15.40
2018-12-30T15:01:00.035Z,14.90
2018-12-30T15:02:15.981Z,12.73
2018-12-30T15:03:32.310Z,13.13
2018-12-30T15:04:48.507Z,17.42
2018-12-30T15:06:04.291Z,9.35
2018-12-30T15:07:20.618Z,13.48
2018-12-30T15:08:36.496Z,7.85
2018-12-30T15:09:52.756Z,11.18
2018-12-30T15:11:08.642Z,12.05
2018-12-30T15:12:24.698Z,13.48
2018-12-30T15:13:40.835Z,54.15
2018-12-30T15:14:56.823Z,11.15
2018-12-30T15:16:13.139Z,10.03
2018-12-30T15:17:29.215Z,10.65
2018-12-30T15:18:45.307Z,8.05
2018-12-30T15:20:01.181Z,7.33
2018-12-30T15:21:17.435Z,12.53
2018-12-30T15:22:33.550Z,12.25
2018-12-30T15:23:49.426Z,9.88
2018-12-30T15:25:11.731Z,11.28
2018-12-30T15:26:23.976Z,10.18
2018-12-30T15:27:39.854Z,9.85
2018-12-30T15:28:55.877Z,11.90
2018-12-30T15:30:11.956Z,11.95
2018-12-30T15:31:28.111Z,8.05
2018-12-30T15:32:44.020Z,9.35
2018-12-30T15:33:59.972Z,9.73
2018-12-30T15:35:15.928Z,10.95
2018-12-30T15:36:31.984Z,16.00
2018-12-30T15:37:48.253Z,11.48
2018-12-30T15:39:04.698Z,14.68
2018-12-30T15:40:20.715Z,9.28
2018-12-30T15:41:37.116Z,11.90
2018-12-30T15:42:53.563Z,12.58
2018-12-30T15:44:09.584Z,10.28
2018-12-30T15:45:25.624Z,11.63
2018-12-30T15:46:41.767Z,11.57
2018-12-30T15:47:57.718Z,10.78
2018-12-30T15:49:13.911Z,11.50
2018-12-30T15:50:30.215Z,11.20
2018-12-30T15:51:46.192Z,14.78
2018-12-30T15:53:02.006Z,13.88
2018-12-30T15:54:17.959Z,12.23
2018-12-30T15:55:33.877Z,10.25
2018-12-30T15:56:49.667Z,11.80
2018-12-30T15:58:05.668Z,14.53
2018-12-30T15:59:21.600Z,16.35
2018-12-30T16:00:37.579Z,12.00
2018-12-30T16:01:53.557Z,12.93
2018-12-30T16:03:09.701Z,13.10
2018-12-30T16:04:25.395Z,12.80
2018-12-30T16:05:41.379Z,9.90
2018-12-30T16:06:57.642Z,9.88
2018-12-30T16:08:13.939Z,14.43
2018-12-30T16:09:30.287Z,11.83
2018-12-30T16:10:46.491Z,15.78
2018-12-30T16:12:02.273Z,16.05
2018-12-30T16:13:18.121Z,13.72
2018-12-30T16:14:33.665Z,12.18
2018-12-30T16:15:49.220Z,10.35
2018-12-30T16:17:05.822Z,14.30
2018-12-30T16:18:21.666Z,17.98
2018-12-30T16:19:37.476Z,17.67
2018-12-30T16:20:53.659Z,16.37
2018-12-30T16:22:09.387Z,18.95
2018-12-30T16:23:25.348Z,12.33
2018-12-30T16:24:41.519Z,15.88
2018-12-30T16:25:57.660Z,13.38
2018-12-30T16:27:13.973Z,17.67
2018-12-30T16:28:30.216Z,15.88
2018-12-30T16:29:46.290Z,14.90
2018-12-30T16:31:02.556Z,12.47
2018-12-30T16:32:18.776Z,10.35
2018-12-30T16:33:35.166Z,8.88
2018-12-30T16:34:51.306Z,13.90
2018-12-30T16:36:07.002Z,13.88
2018-12-30T16:37:23.148Z,10.48
2018-12-30T16:38:39.440Z,16.35
2018-12-30T16:39:55.308Z,15.60
2018-12-30T16:41:11.757Z,19.02
2018-12-30T16:42:27.451Z,12.60
2018-12-30T16:43:43.604Z,11.50
2018-12-30T16:44:59.554Z,16.23
2018-12-30T16:46:15.405Z,12.68
2018-12-30T16:47:31.336Z,10.15
2018-12-30T16:48:47.092Z,13.48
2018-12-30T16:50:02.992Z,10.55
2018-12-30T16:51:19.030Z,13.15
2018-12-30T16:52:34.989Z,13.18
2018-12-30T16:53:50.881Z,13.50
2018-12-30T16:55:06.773Z,15.35
2018-12-30T16:56:22.475Z,13.68
2018-12-30T16:57:38.337Z,12.35
2018-12-30T16:58:54.384Z,12.10
2018-12-30T17:00:10.298Z,13.43
2018-12-30T17:01:26.248Z,13.00
2018-12-30T17:02:42.219Z,15.15
2018-12-30T17:03:57.851Z,11.15
2018-12-30T17:05:13.658Z,16.55
2018-12-30T17:06:33.901Z,14.87
2018-12-30T17:07:47.512Z,9.30
2018-12-30T17:09:04.619Z,17.15
2018-12-30T17:10:20.960Z,17.10
2018-12-30T17:11:36.999Z,14.13
2018-12-30T17:12:53.144Z,12.03
2018-12-30T17:14:09.266Z,14.33
2018-12-30T17:15:25.080Z,14.47
2018-12-30T17:16:41.071Z,11.03
2018-12-30T17:17:57.081Z,12.82
2018-12-30T17:19:13.444Z,12.75
2018-12-30T17:20:29.588Z,15.63
2018-12-30T17:21:45.489Z,12.68
2018-12-30T17:23:01.850Z,13.08
2018-12-30T17:24:17.660Z,14.20
2018-12-30T17:25:33.541Z,14.25
2018-12-30T17:26:49.343Z,13.62
2018-12-30T17:28:05.111Z,14.00
2018-12-30T17:29:21.140Z,13.53
2018-12-30T17:30:37.293Z,13.15
2018-12-30T17:31:53.440Z,11.60
2018-12-30T17:33:09.306Z,13.43
2018-12-30T17:34:25.551Z,13.08
2018-12-30T17:35:41.958Z,12.55
2018-12-30T17:36:58.130Z,16.77
2018-12-30T17:38:13.702Z,13.48
2018-12-30T17:39:29.896Z,14.68
2018-12-30T17:40:45.576Z,16.95
2018-12-30T17:42:01.923Z,15.83
2018-12-30T17:43:18.088Z,12.50
2018-12-30T17:44:34.344Z,14.40
2018-12-30T17:45:50.015Z,13.78
2018-12-30T17:47:06.027Z,13.70
2018-12-30T17:48:22.083Z,20.72
2018-12-30T17:49:38.292Z,16.07
2018-12-30T17:50:54.486Z,12.53
2018-12-30T17:52:10.979Z,13.03
2018-12-30T17:53:26.920Z,16.87
2018-12-30T17:54:42.703Z,14.28
2018-12-30T17:55:58.721Z,16.37
2018-12-30T17:57:14.991Z,14.55
2018-12-30T17:58:30.871Z,14.25
2018-12-30T17:59:47.139Z,13.72
2018-12-30T18:01:02.999Z,14.13
2018-12-30T18:02:18.951Z,18.52
2018-12-30T18:03:34.853Z,15.50
2018-12-30T18:04:50.500Z,13.88
2018-12-30T18:06:06.892Z,15.60
2018-12-30T18:07:23.064Z,18.50
2018-12-30T18:08:39.324Z,13.75
2018-12-30T18:09:55.291Z,18.37
2018-12-30T18:11:11.281Z,13.25
2018-12-30T18:12:27.208Z,17.52
2018-12-30T18:13:43.514Z,19.48
2018-12-30T18:14:59.584Z,18.35
2018-12-30T18:16:15.759Z,17.12
2018-12-30T18:17:31.395Z,14.93
2018-12-30T18:18:47.319Z,20.55
2018-12-30T18:20:03.183Z,19.60
2018-12-30T18:21:19.099Z,20.05
2018-12-30T18:22:35.141Z,16.45
2018-12-30T18:23:50.852Z,20.43
2018-12-30T18:25:07.006Z,18.65
2018-12-30T18:26:23.328Z,14.80
2018-12-30T18:27:39.378Z,17.90
2018-12-30T18:28:55.476Z,17.07
2018-12-30T18:30:11.521Z,16.02
2018-12-30T18:31:27.355Z,17.75
2018-12-30T18:32:43.592Z,17.52
2018-12-30T18:33:59.428Z,21.40
2018-12-30T18:35:15.701Z,19.40
2018-12-30T18:36:31.627Z,16.57
2018-12-30T18:37:47.831Z,18.65
2018-12-30T18:39:04.474Z,17.82
2018-12-30T18:40:20.663Z,27.15
2018-12-30T18:41:36.891Z,23.52
2018-12-30T18:42:53.327Z,24.52
2018-12-30T18:44:09.338Z,21.52
2018-12-30T18:45:25.749Z,17.73
2018-12-30T18:46:41.944Z,22.70
2018-12-30T18:47:58.473Z,20.25
2018-12-30T18:49:14.829Z,23.35
2018-12-30T18:50:30.786Z,21.90
2018-12-30T18:51:46.742Z,22.37
2018-12-30T18:53:02.653Z,28.32
2018-12-30T18:54:19.587Z,25.12
2018-12-30T18:55:35.422Z,29.00
2018-12-30T18:56:51.236Z,23.07
2018-12-30T18:58:07.147Z,21.07
2018-12-30T18:59:23.211Z,18.73
2018-12-30T19:00:39.083Z,20.15
2018-12-30T19:01:54.963Z,15.72
2018-12-30T19:03:10.883Z,19.20
2018-12-30T19:04:27.137Z,19.73
2018-12-30T19:05:42.806Z,22.17
2018-12-30T19:06:58.305Z,21.68
2018-12-30T19:08:13.873Z,21.68
2018-12-30T19:09:29.970Z,20.95
2018-12-30T19:10:46.124Z,19.75
2018-12-30T19:12:02.029Z,19.12
2018-12-30T19:13:18.235Z,16.20
2018-12-30T19:14:34.223Z,18.42
2018-12-30T19:15:50.076Z,16.35
2018-12-30T19:17:05.981Z,17.67
2018-12-30T19:18:21.811Z,18.17
2018-12-30T19:19:37.542Z,15.65
2018-12-30T19:20:53.440Z,18.98
2018-12-30T19:22:09.580Z,23.38
2018-12-30T19:23:25.690Z,21.40
2018-12-30T19:24:41.832Z,22.15
2018-12-30T19:26:01.098Z,20.97
2018-12-30T19:27:16.169Z,19.48
2018-12-30T19:28:32.025Z,19.45
2018-12-30T19:29:48.130Z,17.32
2018-12-30T19:31:03.831Z,16.00
2018-12-30T19:32:19.595Z,17.73
2018-12-30T19:33:35.800Z,19.23
2018-12-30T19:34:51.903Z,16.67
2018-12-30T19:36:07.840Z,20.45
2018-12-30T19:37:23.659Z,18.40
2018-12-30T19:38:39.473Z,16.40
2018-12-30T19:39:55.263Z,19.12
2018-12-30T19:41:11.424Z,18.02
2018-12-30T19:42:27.199Z,19.60
2018-12-30T19:43:43.405Z,19.35
2018-12-30T19:44:59.160Z,15.98
2018-12-30T19:46:15.151Z,17.80
2018-12-30T19:47:30.856Z,17.07
2018-12-30T19:48:47.016Z,17.50
2018-12-30T19:50:02.869Z,18.48
2018-12-30T19:51:18.852Z,17.15
2018-12-30T19:52:35.095Z,19.52
2018-12-30T19:53:51.247Z,17.55
2018-12-30T19:55:07.337Z,21.27
2018-12-30T19:56:23.526Z,21.23
2018-12-30T19:57:39.523Z,16.40
2018-12-30T19:58:55.687Z,19.57
2018-12-30T20:00:11.506Z,21.07
2018-12-30T20:01:27.372Z,16.85
2018-12-30T20:02:43.093Z,19.20
2018-12-30T20:03:58.812Z,17.67
2018-12-30T20:05:15.031Z,18.32
2018-12-30T20:06:31.239Z,15.05
2018-12-30T20:07:47.427Z,21.30
2018-12-30T20:09:04.360Z,17.07
2018-12-30T20:10:20.612Z,19.02
2018-12-30T20:11:36.567Z,16.12
2018-12-30T20:12:52.392Z,15.80
2018-12-30T20:14:08.455Z,15.00
2018-12-30T20:15:24.283Z,16.87
2018-12-30T20:16:40.164Z,15.08
2018-12-30T20:17:56.388Z,15.75
2018-12-30T20:19:12.618Z,16.35
2018-12-30T20:20:28.584Z,18.55
2018-12-30T20:21:44.504Z,14.63
2018-12-30T20:23:00.631Z,15.55
2018-12-30T20:24:16.340Z,18.82
2018-12-30T20:25:32.476Z,17.02
2018-12-30T20:26:48.505Z,18.57
2018-12-30T20:28:04.937Z,17.90
2018-12-30T20:29:21.625Z,30.08
2018-12-30T20:30:38.151Z,17.40
2018-12-30T20:31:54.302Z,22.00
2018-12-30T20:33:10.223Z,16.27
2018-12-30T20:34:26.782Z,17.52
2018-12-30T20:35:43.000Z,17.92
2018-12-30T20:36:59.147Z,15.65
2018-12-30T20:38:15.055Z,15.43
2018-12-30T20:39:30.987Z,16.23
2018-12-30T20:40:46.867Z,17.77
2018-12-30T20:42:03.156Z,18.57
2018-12-30T20:43:19.139Z,17.07
2018-12-30T20:44:34.893Z,19.23
2018-12-30T20:45:51.003Z,20.80
2018-12-30T20:47:06.906Z,17.32
2018-12-30T20:48:23.116Z,18.60
2018-12-30T20:49:39.071Z,16.27
2018-12-30T20:50:54.916Z,20.10
2018-12-30T20:52:11.089Z,18.10
2018-12-30T20:53:27.624Z,16.85
2018-12-30T20:54:43.995Z,16.48
2018-12-30T20:56:00.019Z,18.65
2018-12-30T20:57:16.211Z,16.62
2018-12-30T20:58:33.414Z,16.80
2018-12-30T20:59:50.054Z,14.98
2018-12-30T21:01:08.448Z,16.23
2018-12-30T21:02:30.162Z,19.00
2018-12-30T21:03:49.317Z,17.85
2018-12-30T21:05:05.452Z,18.12
2018-12-30T21:06:22.348Z,17.70
2018-12-30T21:07:38.530Z,17.40
2018-12-30T21:08:54.441Z,17.80
2018-12-30T21:10:16.268Z,17.35
2018-12-30T21:11:38.463Z,18.02
2018-12-30T21:12:54.650Z,15.40
2018-12-30T21:14:14.419Z,16.42
2018-12-30T21:15:31.472Z,15.58
2018-12-30T21:16:49.558Z,16.85
2018-12-30T21:18:05.746Z,18.10
2018-12-30T21:19:26.433Z,16.90
2018-12-30T21:20:42.852Z,14.95
2018-12-30T21:21:59.380Z,36.23
2018-12-30T21:23:18.635Z,21.02
2018-12-30T21:24:37.979Z,17.87
2018-12-30T21:25:54.164Z,19.02
2018-12-30T21:27:10.496Z,16.27
2018-12-30T21:28:27.050Z,16.45
2018-12-30T21:29:43.787Z,16.32
2018-12-30T21:31:00.027Z,14.53
2018-12-30T21:32:16.244Z,16.52
2018-12-30T21:33:36.273Z,15.30
2018-12-30T21:34:58.030Z,14.00
2018-12-30T21:36:32.406Z,16.55
2018-12-30T21:38:59.876Z,15.23
2018-12-30T21:40:18.878Z,14.95
2018-12-30T21:41:35.398Z,15.95
2018-12-30T21:42:51.835Z,14.83
2018-12-30T21:44:08.202Z,16.35
2018-12-30T21:45:28.586Z,16.97
2018-12-30T21:46:44.621Z,17.82
2018-12-30T21:48:11.810Z,14.50
2018-12-30T21:49:31.735Z,15.35
2018-12-30T21:51:07.612Z,17.27
2018-12-30T21:52:15.328Z,14.20
2018-12-30T21:53:32.379Z,17.75
2018-12-30T21:54:53.797Z,15.45
2018-12-30T21:56:14.862Z,15.85
2018-12-30T21:57:33.637Z,14.15
2018-12-30T21:58:49.556Z,15.88
2018-12-30T22:00:05.911Z,15.55
2018-12-30T22:01:26.842Z,17.10
2018-12-30T22:02:47.290Z,14.38
2018-12-30T22:04:03.922Z,14.13
2018-12-30T22:05:20.833Z,15.85
2018-12-30T22:06:39.901Z,15.28
2018-12-30T22:08:00.328Z,13.65
2018-12-30T22:09:17.122Z,12.05
2018-12-30T22:10:33.351Z,15.08
2018-12-30T22:11:50.723Z,19.57
2018-12-30T22:13:07.929Z,29.90
2018-12-30T22:14:24.872Z,11.22
2018-12-30T22:15:44.022Z,10.38
2018-12-30T22:17:02.441Z,11.43
2018-12-30T22:18:21.433Z,12.18
2018-12-30T22:19:42.821Z,9.78
2018-12-30T22:21:02.623Z,11.33
2018-12-30T22:22:20.753Z,11.33
2018-12-30T22:23:44.569Z,11.70
2018-12-30T22:25:18.505Z,10.90
2018-12-30T22:26:26.677Z,11.68
2018-12-30T22:27:45.845Z,13.53
2018-12-30T22:29:05.697Z,13.28
2018-12-30T22:30:23.745Z,12.03
2018-12-30T22:31:40.834Z,12.25
2018-12-30T22:32:57.569Z,14.15
2018-12-30T22:34:13.578Z,12.37
2018-12-30T22:35:32.642Z,11.93
2018-12-30T22:36:49.471Z,14.95
2018-12-30T22:38:06.176Z,14.98
2018-12-30T22:39:22.398Z,15.03
2018-12-30T22:40:38.398Z,14.33
2018-12-30T22:41:56.786Z,14.25
2018-12-30T22:43:15.021Z,13.53
2018-12-30T22:44:34.355Z,14.50
2018-12-30T22:45:56.170Z,14.83
2018-12-30T22:47:12.308Z,12.40
2018-12-30T22:48:30.404Z,14.63
2018-12-30T22:49:47.308Z,12.95
2018-12-30T22:51:03.495Z,12.58
2018-12-30T22:52:23.365Z,11.33
2018-12-30T22:57:25.347Z,13.18
2018-12-30T22:58:51.625Z,11.03
2018-12-30T23:00:48.651Z,13.15
2018-12-30T23:09:42.699Z,14.30
2018-12-30T23:11:20.056Z,13.83
2018-12-30T23:12:52.393Z,13.22
2018-12-30T23:20:45.309Z,13.25
2018-12-30T23:25:58.390Z,14.68
2018-12-30T23:27:42.550Z,14.33
2018-12-30T23:29:25.254Z,13.53
2018-12-30T23:30:53.448Z,13.10
2018-12-30T23:34:28.256Z,14.63
2018-12-30T23:37:54.983Z,16.30
2018-12-30T23:39:39.359Z,13.85
2018-12-30T23:41:36.263Z,13.80
2018-12-30T23:53:02.695Z,10.88
2018-12-30T23:56:29.444Z,12.40
2018-12-30T23:58:14.051Z,14.65
